AirNav   Everest Fuels
 
 879 users online  

WN29 Blue Ribbon Airport
Sequim, Washington, USA

GOING TO SEQUIM?


FAA INFORMATION EFFECTIVE 02 JANUARY 2020

Location

FAA Identifier: WN29
Lat/Long: 48-07-48.9000N 123-12-19.8750W
48-07.815000N 123-12.331250W
48.1302500,-123.2055208
(estimated)
Elevation: 103 ft. / 31 m (estimated)
Variation: 21E (1985)
From city: 5 miles NW of SEQUIM, WA
Time zone: UTC -8 (UTC -7 during Daylight Saving Time)
Zip code: 98382

Airport Operations

Airport use: Private use. Permission required prior to landing
Activation date: 01/1983
Control tower: no
ARTCC: SEATTLE CENTER
FSS: SEATTLE FLIGHT SERVICE STATION
Attendance: UNATNDD
Wind indicator: yes
Segmented circle: no

Airport Communications

WX AWOS-3P at NOW (8 nm W): 118.325 (360-457-7529)
WX ASOS at CLM (12 nm W): 135.175 (360-457-1070)
WX AWOS-3P at 0S9 (16 nm E): 119.025 (360-379-1199)

Nearby radio navigation aids

VOR radial/distance  VOR name  Freq  Var
CVVr231/20.4PENN COVE VOR/DME117.2019E
YYJr146/37.5VICTORIA VOR/DME113.7017E
PAEr269/39.3PAINE VOR/DME110.6020E

 
NDB name  Hdg/Dist  Freq  Var  ID
EDIZ HOOK077/7.933817ENOW -. --- .--
FRIDAY HARBOR181/24.028417EFHR ..-. .... .-.
SKAGIT/BAY VIEW221/37.424016EBVS -... ...- ...

Airport Services

Runway Information

Runway 7/25

Dimensions: 1961 x 60 ft. / 598 x 18 m
Surface: turf, in good condition
RUNWAY 7  RUNWAY 25
Latitude: 48-07.815333N48-07.814667N
Longitude: 123-12.572167W123-12.090333W
Elevation: 103.0 ft.103.0 ft.
Traffic pattern: leftleft
Touchdown point: yes, no lightsyes, no lights

Airport Ownership and Management from official FAA records

Ownership: Privately-owned
Owner: BLUE RIBBON FARMS
363 GREYWOLF ROAD
SEQUIM, WA 98382
Phone (206) 719-7116
PROPERTY OWNERS ASSN., INC.
Manager: DAVID WOODCOCK
402 GREYWOLF ROAD
SEQUIM, WA 98382
Phone (206) 719-7116

Airport Operational Statistics

Aircraft based on the field: 11
Single engine airplanes: 10
Multi engine airplanes: 1
    

Additional Remarks

WILDLIFE (DEER) ON AND IN VCNTY OF ARPT, EAGLES AND SEAGULLS ALSO ON AND IN VCNTY OF ARPT.
FOR CD CTC SEATTLE ARTCC AT 253-351-3694.

Instrument Procedures

There are no published instrument procedures at WN29.

Some nearby airports with instrument procedures:

KNOW - Port Angeles Coast Guard Air Station Airport (8 nm W)
KCLM - William R Fairchild International Airport (12 nm W)
0S9 - Jefferson County International Airport (16 nm E)
KOKH - AJ Eisenberg Airport (22 nm E)
KFHR - Friday Harbor Airport (25 nm N)
 
Loc | Ops | Rwys | IFR | FBO | Links
Com | Nav | Svcs | Stats | Notes
Area around WN29 (Blue Ribbon Airport)
 
Road maps at: MapQuest Bing Google
 
Aerial photo
WARNING: Photo may not be current or correct
Aerial photo of WN29 (Blue Ribbon Airport)
Photo by Dave Woodcock, Greywolf Aerial Photography www.greywolfphotography.com
Taken in June 2005

Do you have a better or more recent aerial photo of Blue Ribbon Airport that you would like to share? If so, please send us your photo.

 
Sectional chart

 
Airport distance calculator
Flying to Blue Ribbon Airport? Find the distance to fly.

From to WN29

Sunrise and sunset
Times for 24-Jan-2020
 Local
(UTC-8)
 Zulu
(UTC)
Morning civil twilight07:1715:17
Sunrise07:5115:51
Sunset16:5900:59
Evening civil twilight17:3301:33

Current date and time
Zulu (UTC)  24-Jan-2020 11:58:53
Local (UTC-8)  24-Jan-2020 03:58:53
 
METAR
KCLM 
12nm W 
241153Z AUTO 23005KT 10SM -RA FEW014 BKN055 OVC075 07/07 A2978 RMK AO2 RAB05 SLP087 P0004 60007 70031 T00720067 10078 20056 53004
KNOW 
16nm W 
241130Z AUTO 00000KT 7SM RA SCT020 BKN048 OVC060 09/08 A2975 RMK AO2 P0002 T00860081
K0S9 
16nm E 
241155Z AUTO 14005KT 10SM FEW009 FEW021 BKN110 10/09 A2977 RMK AO2
CWLM 
18nm N 
241100Z AUTO 11006KT 08/07 RMK AO1 8007 SLP077 T00790074 50008
CYWH 
18nm N 
240500Z VRB04KT 10SM -RA SCT003 SCT035 OVC075 09/09 A2977 RMK SF3SC3AC2 LAST STFD OBS/NEXT 241400Z SLP083
CWPF 
19nm NW 
241145Z AUTO 15004KT 08/08 RMK AO1 SLP078 T00820076 55000
CWYJ 
19nm N 
241100Z AUTO 12001KT 08/08 RMK AO1 SLP077 T00780077 58008
TAF
KCLM 
12nm W 
240902Z 2409/2506 00000KT 4SM BR SCT005 BKN015 OVC050 FM241200 25004KT 4SM -SHRA BR OVC007 FM242200 28006KT P6SM SCT010 OVC040
CYWH 
18nm N 
231946Z 2319/2405 VRB03KT 6SM BR SCT005 BKN050 TEMPO 2319/2322 3SM -DZ BR BKN005 FM232200 08005KT P6SM -SHRA FEW012 SCT025 BKN050 TEMPO 2322/2405 5SM -SHRA BR BKN012 OVC025 RMK NXT FCST BY 240000Z
NOTAMs
Click for the latest NOTAMs
NOTAMs are issued by the DoD/FAA and will open in a separate window not controlled by AirNav.

 

 
 

Would you like to see your business listed on this page?

 If your business provides an interesting product or service to pilots, flight crews, aircraft, or users of the Blue Ribbon Airport, you should consider listing it here.  To start the listing process, click on the button below
 
Add a business
 

Other Pages about Blue Ribbon Airport

www.blueribbonfarmsassoc.com
 
Update a link
 
Copyright © AirNav, LLC. All rights reserved. Privacy Policy  Contact